createdAt,value
2018-11-23T00:00:06.634Z,0.00
2018-11-23T00:01:06.626Z,0.00
2018-11-23T00:02:06.638Z,0.00
2018-11-23T00:03:06.656Z,0.00
2018-11-23T00:04:06.652Z,0.00
2018-11-23T00:05:06.674Z,0.00
2018-11-23T00:06:06.674Z,0.00
2018-11-23T00:07:06.682Z,0.00
2018-11-23T00:08:06.700Z,0.00
2018-11-23T00:09:06.712Z,0.00
2018-11-23T00:10:06.722Z,0.00
2018-11-23T00:11:06.730Z,0.00
2018-11-23T00:12:06.742Z,0.00
2018-11-23T00:13:06.744Z,0.00
2018-11-23T00:14:06.758Z,0.00
2018-11-23T00:15:06.762Z,0.00
2018-11-23T00:16:06.770Z,0.00
2018-11-23T00:17:06.774Z,0.00
2018-11-23T00:18:06.788Z,0.00
2018-11-23T00:19:06.797Z,0.00
2018-11-23T00:20:06.810Z,0.00
2018-11-23T00:21:06.815Z,0.00
2018-11-23T00:22:06.828Z,0.00
2018-11-23T00:23:06.832Z,0.00
2018-11-23T00:24:06.840Z,0.00
2018-11-23T00:25:06.853Z,0.00
2018-11-23T00:26:06.876Z,0.00
2018-11-23T00:27:06.866Z,0.00
2018-11-23T00:28:06.883Z,0.00
2018-11-23T00:29:06.892Z,0.00
2018-11-23T00:30:06.890Z,0.00
2018-11-23T00:31:06.903Z,0.00
2018-11-23T00:32:06.918Z,0.00
2018-11-23T00:33:06.924Z,0.00
2018-11-23T00:34:06.934Z,0.00
2018-11-23T00:35:06.944Z,0.00
2018-11-23T00:36:06.951Z,0.00
2018-11-23T00:37:06.959Z,0.00
2018-11-23T00:38:06.964Z,0.00
2018-11-23T00:39:06.970Z,0.00
2018-11-23T00:40:06.982Z,0.00
2018-11-23T00:41:06.996Z,0.00
2018-11-23T00:42:06.999Z,0.00
2018-11-23T00:43:07.018Z,0.00
2018-11-23T00:44:07.026Z,0.00
2018-11-23T00:45:07.020Z,0.00
2018-11-23T00:46:07.040Z,0.00
2018-11-23T00:47:07.050Z,0.00
2018-11-23T00:48:07.059Z,0.00
2018-11-23T00:49:07.058Z,0.00
2018-11-23T00:50:07.081Z,0.00
2018-11-23T00:51:07.088Z,0.00
2018-11-23T00:52:07.096Z,0.00
2018-11-23T00:53:07.106Z,0.00
2018-11-23T00:54:07.113Z,0.00
2018-11-23T00:55:07.120Z,0.00
2018-11-23T00:56:07.136Z,0.00
2018-11-23T00:57:07.145Z,0.00
2018-11-23T00:58:07.150Z,0.00
2018-11-23T00:59:07.154Z,0.00
2018-11-23T01:00:07.161Z,0.00
2018-11-23T01:01:07.178Z,0.00
2018-11-23T01:02:07.186Z,0.00
2018-11-23T01:03:07.188Z,0.00
2018-11-23T01:04:07.206Z,0.00
2018-11-23T01:05:07.211Z,0.00
2018-11-23T01:06:07.219Z,0.00
2018-11-23T01:07:07.229Z,0.00
2018-11-23T01:08:07.233Z,0.00
2018-11-23T01:09:07.249Z,0.00
2018-11-23T01:10:07.253Z,0.00
2018-11-23T01:11:07.269Z,0.00
2018-11-23T01:12:07.268Z,0.00
2018-11-23T01:13:07.287Z,0.00
2018-11-23T01:14:07.291Z,0.00
2018-11-23T01:15:07.299Z,0.00
2018-11-23T01:16:07.310Z,0.00
2018-11-23T01:17:07.319Z,0.00
2018-11-23T01:18:07.333Z,0.00
2018-11-23T01:19:07.339Z,0.00
2018-11-23T01:20:07.347Z,0.00
2018-11-23T01:21:07.343Z,0.00
2018-11-23T01:22:07.365Z,0.00
2018-11-23T01:23:07.377Z,0.00
2018-11-23T01:24:07.382Z,0.00
2018-11-23T01:25:07.388Z,0.00
2018-11-23T01:26:07.409Z,0.00
2018-11-23T01:27:07.405Z,0.00
2018-11-23T01:28:07.421Z,0.00
2018-11-23T01:29:07.425Z,0.00
2018-11-23T01:30:07.436Z,0.00
2018-11-23T01:31:07.445Z,0.00
2018-11-23T01:32:07.453Z,0.00
2018-11-23T01:33:07.457Z,0.00
2018-11-23T01:34:07.459Z,0.00
2018-11-23T01:35:07.468Z,0.00
2018-11-23T01:36:07.487Z,0.00
2018-11-23T01:37:07.497Z,0.00
2018-11-23T01:38:07.500Z,0.00
2018-11-23T01:39:07.505Z,0.00
2018-11-23T01:40:07.513Z,0.00
2018-11-23T01:41:07.534Z,0.00
2018-11-23T01:42:07.544Z,0.00
2018-11-23T01:43:07.548Z,0.00
2018-11-23T01:44:07.570Z,0.00
2018-11-23T01:45:07.573Z,0.00
2018-11-23T01:46:07.573Z,0.00
2018-11-23T01:47:07.583Z,0.00
2018-11-23T01:48:07.597Z,0.00
2018-11-23T01:49:07.599Z,0.00
2018-11-23T01:50:07.621Z,0.00
2018-11-23T01:51:07.623Z,0.00
2018-11-23T01:52:07.631Z,0.00
2018-11-23T01:53:07.639Z,0.00
2018-11-23T01:54:07.651Z,0.00
2018-11-23T01:55:07.651Z,0.00
2018-11-23T01:56:07.660Z,0.00
2018-11-23T01:57:07.668Z,0.00
2018-11-23T01:58:07.692Z,0.00
2018-11-23T01:59:07.698Z,0.00
2018-11-23T02:00:07.695Z,0.00
2018-11-23T02:01:07.724Z,0.00
2018-11-23T02:02:07.717Z,0.00
2018-11-23T02:03:07.725Z,0.00
2018-11-23T02:04:07.729Z,0.00
2018-11-23T02:05:07.743Z,0.00
2018-11-23T02:06:07.739Z,0.00
2018-11-23T02:07:07.767Z,0.00
2018-11-23T02:08:07.768Z,0.00
2018-11-23T02:09:07.777Z,0.00
2018-11-23T02:10:07.781Z,0.00
2018-11-23T02:11:07.795Z,0.00
2018-11-23T02:12:07.787Z,0.00
2018-11-23T02:13:07.814Z,0.00
2018-11-23T02:14:07.823Z,0.00
2018-11-23T02:15:07.837Z,0.00
2018-11-23T02:16:07.833Z,0.00
2018-11-23T02:17:07.835Z,0.00
2018-11-23T02:18:07.857Z,0.00
2018-11-23T02:19:07.855Z,0.00
2018-11-23T02:20:07.873Z,0.00
2018-11-23T02:21:07.902Z,0.00
2018-11-23T02:22:07.887Z,0.00
2018-11-23T02:23:07.903Z,0.00
2018-11-23T02:24:07.907Z,0.00
2018-11-23T02:25:08.049Z,0.00
2018-11-23T02:26:07.917Z,0.00
2018-11-23T02:27:07.927Z,0.00
2018-11-23T02:28:07.941Z,0.00
2018-11-23T02:29:07.947Z,0.00
2018-11-23T02:30:07.952Z,0.00
2018-11-23T02:31:07.966Z,0.00
2018-11-23T02:32:07.965Z,0.00
2018-11-23T02:33:08.047Z,0.00
2018-11-23T02:34:07.987Z,0.00
2018-11-23T02:35:08.007Z,0.00
2018-11-23T02:36:08.007Z,0.00
2018-11-23T02:37:08.016Z,0.00
2018-11-23T02:38:08.031Z,0.00
2018-11-23T02:39:08.046Z,0.00
2018-11-23T02:40:08.049Z,0.00
2018-11-23T02:41:08.062Z,0.00
2018-11-23T02:42:08.058Z,0.00
2018-11-23T02:43:08.072Z,0.00
2018-11-23T02:44:08.077Z,0.00
2018-11-23T02:45:08.085Z,0.00
2018-11-23T02:46:08.098Z,0.00
2018-11-23T02:47:08.099Z,0.00
2018-11-23T02:48:08.114Z,0.00
2018-11-23T02:49:08.126Z,0.00
2018-11-23T02:50:08.143Z,0.00
2018-11-23T02:51:08.132Z,0.00
2018-11-23T02:52:08.145Z,0.00
2018-11-23T02:53:08.156Z,0.00
2018-11-23T02:54:08.158Z,0.00
2018-11-23T02:55:08.175Z,0.00
2018-11-23T02:56:08.190Z,0.00
2018-11-23T02:57:08.193Z,0.00
2018-11-23T02:58:08.197Z,0.00
2018-11-23T02:59:08.198Z,0.00
2018-11-23T03:00:08.209Z,0.00
2018-11-23T03:01:08.235Z,0.00
2018-11-23T03:02:08.240Z,0.00
2018-11-23T03:03:08.233Z,0.00
2018-11-23T03:04:08.257Z,0.00
2018-11-23T03:05:08.254Z,0.00
2018-11-23T03:06:08.270Z,0.00
2018-11-23T03:07:08.280Z,0.00
2018-11-23T03:08:08.280Z,0.00
2018-11-23T03:09:08.294Z,0.00
2018-11-23T03:10:08.301Z,0.00
2018-11-23T03:11:08.319Z,0.00
2018-11-23T03:12:08.319Z,0.00
2018-11-23T03:13:08.335Z,0.00
2018-11-23T03:14:08.335Z,0.00
2018-11-23T03:15:08.346Z,0.00
2018-11-23T03:16:08.354Z,0.00
2018-11-23T03:17:08.364Z,0.00
2018-11-23T03:18:08.366Z,0.00
2018-11-23T03:19:08.379Z,0.00
2018-11-23T03:20:08.381Z,0.00
2018-11-23T03:21:08.398Z,0.00
2018-11-23T03:22:08.404Z,0.00
2018-11-23T03:23:08.416Z,0.00
2018-11-23T03:24:08.428Z,0.00
2018-11-23T03:25:08.435Z,0.00
2018-11-23T03:26:08.462Z,0.00
2018-11-23T03:27:08.447Z,0.00
2018-11-23T03:28:08.474Z,0.00
2018-11-23T03:29:08.465Z,0.00
2018-11-23T03:30:08.515Z,0.00
2018-11-23T03:31:12.513Z,0.00
2018-11-23T03:32:08.491Z,0.00
2018-11-23T03:33:08.500Z,0.00
2018-11-23T03:34:08.509Z,0.00
2018-11-23T03:35:08.512Z,0.00
2018-11-23T03:36:08.582Z,0.00
2018-11-23T03:37:08.535Z,0.00
2018-11-23T03:38:08.551Z,0.00
2018-11-23T03:39:08.546Z,0.00
2018-11-23T03:40:08.555Z,0.00
2018-11-23T03:41:08.564Z,0.00
2018-11-23T03:42:08.583Z,0.00
2018-11-23T03:43:08.582Z,0.00
2018-11-23T03:44:08.592Z,0.00
2018-11-23T03:45:08.605Z,0.00
2018-11-23T03:46:08.610Z,0.00
2018-11-23T03:47:08.612Z,0.00
2018-11-23T03:48:08.624Z,0.00
2018-11-23T03:49:08.637Z,0.00
2018-11-23T03:50:08.651Z,0.00
2018-11-23T03:51:08.653Z,0.00
2018-11-23T03:52:08.655Z,0.00
2018-11-23T03:53:08.676Z,0.00
2018-11-23T03:54:08.679Z,0.00
2018-11-23T03:55:08.687Z,0.00
2018-11-23T03:56:08.695Z,0.00
2018-11-23T03:57:08.710Z,0.00
2018-11-23T03:58:08.711Z,0.00
2018-11-23T03:59:08.723Z,0.00
2018-11-23T04:00:08.724Z,0.00
2018-11-23T04:01:08.739Z,0.00
2018-11-23T04:02:08.751Z,0.00
2018-11-23T04:03:08.753Z,0.00
2018-11-23T04:04:08.757Z,0.00
2018-11-23T04:05:08.776Z,0.00
2018-11-23T04:06:08.794Z,0.00
2018-11-23T04:07:08.779Z,0.00
2018-11-23T04:08:08.809Z,0.00
2018-11-23T04:09:08.807Z,0.00
2018-11-23T04:10:08.821Z,0.00
2018-11-23T04:11:08.828Z,0.00
2018-11-23T04:12:08.833Z,0.00
2018-11-23T04:13:08.840Z,0.00
2018-11-23T04:14:08.851Z,0.00
2018-11-23T04:15:08.854Z,0.00
2018-11-23T04:16:08.867Z,0.00
2018-11-23T04:17:08.874Z,0.00
2018-11-23T04:18:08.886Z,0.00
2018-11-23T04:19:08.895Z,0.00
2018-11-23T04:20:08.899Z,0.00
2018-11-23T04:21:08.910Z,0.00
2018-11-23T04:22:08.930Z,0.00
2018-11-23T04:23:08.919Z,0.00
2018-11-23T04:24:08.933Z,0.00
2018-11-23T04:25:08.942Z,0.00
2018-11-23T04:26:08.956Z,0.00
2018-11-23T04:27:08.964Z,0.00
2018-11-23T04:28:08.967Z,0.00
2018-11-23T04:29:08.982Z,0.00
2018-11-23T04:30:08.985Z,0.00
2018-11-23T04:31:09.000Z,0.00
2018-11-23T04:32:09.009Z,0.00
2018-11-23T04:33:09.018Z,0.00
2018-11-23T04:34:09.021Z,0.00
2018-11-23T04:35:09.026Z,0.00
2018-11-23T04:36:09.047Z,0.00
2018-11-23T04:37:09.041Z,0.00
2018-11-23T04:38:09.054Z,0.00
2018-11-23T04:39:09.104Z,0.00
2018-11-23T04:40:09.074Z,0.00
2018-11-23T04:41:09.093Z,0.00
2018-11-23T04:42:09.083Z,0.00
2018-11-23T04:43:09.096Z,0.00
2018-11-23T04:44:09.101Z,0.00
2018-11-23T04:45:09.111Z,0.00
2018-11-23T04:46:09.118Z,0.00
2018-11-23T04:47:09.130Z,0.00
2018-11-23T04:48:09.134Z,0.00
2018-11-23T04:49:09.144Z,0.00
2018-11-23T04:50:09.164Z,0.00
2018-11-23T04:51:09.176Z,0.00
2018-11-23T04:52:09.184Z,0.00
2018-11-23T04:53:09.190Z,0.00
2018-11-23T04:54:09.198Z,0.00
2018-11-23T04:55:09.208Z,0.00
2018-11-23T04:56:09.210Z,0.00
2018-11-23T04:57:09.217Z,0.00
2018-11-23T04:58:09.236Z,0.00
2018-11-23T04:59:09.238Z,0.00
2018-11-23T05:00:09.258Z,0.00
2018-11-23T05:01:09.261Z,0.00
2018-11-23T05:02:09.268Z,0.00
2018-11-23T05:03:09.280Z,0.00
2018-11-23T05:04:09.276Z,0.00
2018-11-23T05:05:09.294Z,0.00
2018-11-23T05:06:09.305Z,0.00
2018-11-23T05:07:09.316Z,0.00
2018-11-23T05:08:09.320Z,0.00
2018-11-23T05:09:09.335Z,0.00
2018-11-23T05:10:09.342Z,0.00
2018-11-23T05:11:09.348Z,0.00
2018-11-23T05:12:09.357Z,0.00
2018-11-23T05:13:09.365Z,0.00
2018-11-23T05:14:09.376Z,0.00
2018-11-23T05:15:09.387Z,0.00
2018-11-23T05:16:09.394Z,0.00
2018-11-23T05:17:09.400Z,0.00
2018-11-23T05:18:09.404Z,0.00
2018-11-23T05:19:09.414Z,0.00
2018-11-23T05:20:09.428Z,0.00
2018-11-23T05:21:09.440Z,0.00
2018-11-23T05:22:09.440Z,0.00
2018-11-23T05:23:09.454Z,0.00
2018-11-23T05:24:09.463Z,0.00
2018-11-23T05:25:09.468Z,0.00
2018-11-23T05:26:09.485Z,0.00
2018-11-23T05:27:09.484Z,0.00
2018-11-23T05:28:09.492Z,0.00
2018-11-23T05:29:09.504Z,0.00
2018-11-23T05:30:09.510Z,0.00
2018-11-23T05:31:09.524Z,0.00
2018-11-23T05:32:09.523Z,0.00
2018-11-23T05:33:09.540Z,0.00
2018-11-23T05:34:09.542Z,0.00
2018-11-23T05:35:09.555Z,0.00
2018-11-23T05:36:09.568Z,0.00
2018-11-23T05:37:09.569Z,0.00
2018-11-23T05:38:09.578Z,0.00
2018-11-23T05:39:09.607Z,0.00
2018-11-23T05:40:09.591Z,0.00
2018-11-23T05:41:09.600Z,0.00
2018-11-23T05:42:09.624Z,0.00
2018-11-23T05:43:09.617Z,0.00
2018-11-23T05:44:09.637Z,0.00
2018-11-23T05:45:09.647Z,0.00
2018-11-23T05:46:09.649Z,0.00
2018-11-23T05:47:09.654Z,0.00
2018-11-23T05:48:09.673Z,0.00
2018-11-23T05:49:09.688Z,0.00
2018-11-23T05:50:09.694Z,0.00
2018-11-23T05:51:09.701Z,0.00
2018-11-23T05:52:09.707Z,0.00
2018-11-23T05:53:09.713Z,0.00
2018-11-23T05:54:09.719Z,0.00
2018-11-23T05:55:09.746Z,0.00
2018-11-23T05:56:09.733Z,0.00
2018-11-23T05:57:09.749Z,0.00
2018-11-23T05:58:09.759Z,0.00
2018-11-23T05:59:09.763Z,0.00
2018-11-23T06:00:09.777Z,0.00
2018-11-23T06:01:09.790Z,0.00
2018-11-23T06:02:09.796Z,0.00
2018-11-23T06:03:09.816Z,0.00
2018-11-23T06:04:09.803Z,0.00
2018-11-23T06:05:09.817Z,0.00
2018-11-23T06:06:09.830Z,0.00
2018-11-23T06:07:09.830Z,0.00
2018-11-23T06:08:09.841Z,0.00
2018-11-23T06:09:09.849Z,0.00
2018-11-23T06:10:09.854Z,0.00
2018-11-23T06:11:09.871Z,0.00
2018-11-23T06:12:09.867Z,0.00
2018-11-23T06:13:09.879Z,0.00
2018-11-23T06:14:09.898Z,0.00
2018-11-23T06:15:09.895Z,0.00
2018-11-23T06:16:09.911Z,0.00
2018-11-23T06:17:09.916Z,0.00
2018-11-23T06:18:09.929Z,0.00
2018-11-23T06:19:09.943Z,0.00
2018-11-23T06:20:09.945Z,0.00
2018-11-23T06:21:09.949Z,0.00
2018-11-23T06:22:09.969Z,0.00
2018-11-23T06:23:10.080Z,0.00
2018-11-23T06:24:09.985Z,0.00
2018-11-23T06:25:09.986Z,0.00
2018-11-23T06:26:10.008Z,0.00
2018-11-23T06:27:10.005Z,0.00
2018-11-23T06:28:10.013Z,0.00
2018-11-23T06:29:10.033Z,4.00
2018-11-23T06:30:10.072Z,4.00
2018-11-23T06:31:10.056Z,0.00
2018-11-23T06:32:10.055Z,0.00
2018-11-23T06:33:10.673Z,4.00
2018-11-23T06:34:10.057Z,0.00
2018-11-23T06:35:10.083Z,4.00
2018-11-23T06:36:10.079Z,4.00
2018-11-23T06:37:10.181Z,4.00
2018-11-23T06:38:10.148Z,4.00
2018-11-23T06:39:10.112Z,4.00
2018-11-23T06:40:10.115Z,8.00
2018-11-23T06:41:10.738Z,8.00
2018-11-23T06:42:10.141Z,8.00
2018-11-23T06:43:10.165Z,12.00
2018-11-23T06:44:10.150Z,12.00
2018-11-23T06:45:10.171Z,16.00
2018-11-23T06:46:10.175Z,16.00
2018-11-23T06:47:10.169Z,20.00
2018-11-23T06:48:10.192Z,24.00
2018-11-23T06:49:10.218Z,24.00
2018-11-23T06:50:10.209Z,28.00
2018-11-23T06:51:10.219Z,36.00
2018-11-23T06:52:10.229Z,36.00
2018-11-23T06:53:10.250Z,44.00
2018-11-23T06:54:14.364Z,48.00
2018-11-23T06:55:10.260Z,52.00
2018-11-23T06:56:10.266Z,60.00
2018-11-23T06:57:10.272Z,64.00
2018-11-23T06:58:10.278Z,68.00
2018-11-23T06:59:10.286Z,76.00
2018-11-23T07:00:10.280Z,80.00
2018-11-23T07:01:10.313Z,88.00
2018-11-23T07:02:10.307Z,92.00
2018-11-23T07:03:10.318Z,100.00
2018-11-23T07:04:10.331Z,112.00
2018-11-23T07:05:10.343Z,116.00
2018-11-23T07:06:10.346Z,124.00
2018-11-23T07:07:10.352Z,132.00
2018-11-23T07:08:10.366Z,144.00
2018-11-23T07:09:10.368Z,156.00
2018-11-23T07:10:10.385Z,164.00
2018-11-23T07:11:10.388Z,172.00
2018-11-23T07:12:10.396Z,184.00
2018-11-23T07:13:10.396Z,192.00
2018-11-23T07:14:10.416Z,204.00
2018-11-23T07:15:10.423Z,216.00
2018-11-23T07:16:10.438Z,224.00
2018-11-23T07:17:10.446Z,236.00
2018-11-23T07:18:10.450Z,248.00
2018-11-23T07:19:10.461Z,260.00
2018-11-23T07:20:10.469Z,272.00
2018-11-23T07:21:10.470Z,284.00
2018-11-23T07:22:10.483Z,296.00
2018-11-23T07:23:10.538Z,308.00
2018-11-23T07:24:10.500Z,320.00
2018-11-23T07:25:10.506Z,332.00
2018-11-23T07:26:10.535Z,348.00
2018-11-23T07:27:10.517Z,356.00
2018-11-23T07:28:15.392Z,376.00
2018-11-23T07:29:10.549Z,380.00
2018-11-23T07:30:10.542Z,400.00
2018-11-23T07:31:10.568Z,412.00
2018-11-23T07:32:10.561Z,424.00
2018-11-23T07:33:10.578Z,436.00
2018-11-23T07:34:10.578Z,448.00
2018-11-23T07:35:10.606Z,464.00
2018-11-23T07:36:11.178Z,476.00
2018-11-23T07:37:10.614Z,492.00
2018-11-23T07:38:10.620Z,500.00
2018-11-23T07:39:10.623Z,512.00
2018-11-23T07:40:10.660Z,524.00
2018-11-23T07:41:10.648Z,536.00
2018-11-23T07:42:11.176Z,548.00
2018-11-23T07:43:10.664Z,564.00
2018-11-23T07:44:10.680Z,576.00
2018-11-23T07:45:10.684Z,588.00
2018-11-23T07:46:10.694Z,600.00
2018-11-23T07:47:10.706Z,612.00
2018-11-23T07:48:10.714Z,628.00
2018-11-23T07:49:10.722Z,644.00
2018-11-23T07:50:10.718Z,652.00
2018-11-23T07:51:10.733Z,664.00
2018-11-23T07:52:10.742Z,672.00
2018-11-23T07:53:10.759Z,688.00
2018-11-23T07:54:10.764Z,700.00
2018-11-23T07:55:10.768Z,716.00
2018-11-23T07:56:10.794Z,732.00
2018-11-23T07:57:10.782Z,740.00
2018-11-23T07:58:10.791Z,752.00
2018-11-23T07:59:10.809Z,764.00
2018-11-23T08:00:10.813Z,776.00
2018-11-23T08:01:10.822Z,792.00
2018-11-23T08:02:10.830Z,804.00
2018-11-23T08:03:10.849Z,816.00
2018-11-23T08:04:10.847Z,824.00
2018-11-23T08:05:10.922Z,836.00
2018-11-23T08:06:10.867Z,844.00
2018-11-23T08:07:10.879Z,856.00
2018-11-23T08:08:10.883Z,872.00
2018-11-23T08:09:10.890Z,888.00
2018-11-23T08:10:10.896Z,904.00
2018-11-23T08:11:10.915Z,920.00
2018-11-23T08:12:10.933Z,940.00
2018-11-23T08:13:10.929Z,956.00
2018-11-23T08:14:10.940Z,968.00
2018-11-23T08:15:10.945Z,988.00
2018-11-23T08:16:10.957Z,1012.00
2018-11-23T08:17:10.965Z,1040.00
2018-11-23T08:18:10.971Z,1068.00
2018-11-23T08:19:10.987Z,1088.00
2018-11-23T08:20:10.991Z,1108.00
2018-11-23T08:21:10.997Z,1124.00
2018-11-23T08:22:11.005Z,1132.00
2018-11-23T08:23:11.016Z,1096.00
2018-11-23T08:24:11.017Z,1064.00
2018-11-23T08:25:11.029Z,1040.00
2018-11-23T08:26:11.053Z,1056.00
2018-11-23T08:27:11.058Z,1104.00
2018-11-23T08:28:11.057Z,1088.00
2018-11-23T08:29:11.075Z,1056.00
2018-11-23T08:30:11.073Z,1036.00
2018-11-23T08:31:11.087Z,1008.00
2018-11-23T08:32:11.089Z,1008.00
2018-11-23T08:33:11.113Z,1072.00
2018-11-23T08:34:11.113Z,1184.00
2018-11-23T08:35:11.118Z,1160.00
2018-11-23T08:36:11.139Z,1116.00
2018-11-23T08:37:11.132Z,1104.00
2018-11-23T08:38:11.134Z,1116.00
2018-11-23T08:39:11.156Z,1128.00
2018-11-23T08:40:11.163Z,1140.00
2018-11-23T08:41:11.185Z,1176.00
2018-11-23T08:42:11.182Z,1192.00
2018-11-23T08:43:11.188Z,1252.00
2018-11-23T08:44:11.194Z,1412.00
2018-11-23T08:45:11.209Z,1612.00
2018-11-23T08:46:11.218Z,1624.00
2018-11-23T08:47:11.226Z,1648.00
2018-11-23T08:48:11.234Z,1620.00
2018-11-23T08:49:11.246Z,1584.00
2018-11-23T08:50:11.256Z,1536.00
2018-11-23T08:51:11.261Z,1512.00
2018-11-23T08:52:11.278Z,1484.00
2018-11-23T08:53:11.276Z,1468.00
2018-11-23T08:54:11.290Z,1436.00
2018-11-23T08:55:11.286Z,1420.00
2018-11-23T08:56:11.312Z,1416.00
2018-11-23T08:57:11.308Z,1372.00
2018-11-23T08:58:11.327Z,1300.00
2018-11-23T08:59:11.340Z,1408.00
2018-11-23T09:00:11.342Z,1432.00
2018-11-23T09:01:11.353Z,1452.00
2018-11-23T09:02:11.359Z,1352.00
2018-11-23T09:03:11.376Z,1380.00
2018-11-23T09:04:11.381Z,1384.00
2018-11-23T09:05:11.401Z,1340.00
2018-11-23T09:06:11.414Z,1304.00
2018-11-23T09:07:11.412Z,1444.00
2018-11-23T09:08:11.434Z,1580.00
2018-11-23T09:09:11.432Z,1596.00
2018-11-23T09:10:11.436Z,1596.00
2018-11-23T09:11:11.440Z,1612.00
2018-11-23T09:12:11.444Z,1632.00
2018-11-23T09:13:11.462Z,1676.00
2018-11-23T09:14:11.472Z,1688.00
2018-11-23T09:15:11.479Z,1704.00
2018-11-23T09:16:11.485Z,1716.00
2018-11-23T09:17:11.504Z,1716.00
2018-11-23T09:18:11.521Z,1708.00
2018-11-23T09:19:11.521Z,1708.00
2018-11-23T09:20:11.533Z,1704.00
2018-11-23T09:21:11.534Z,1700.00
2018-11-23T09:22:11.554Z,1708.00
2018-11-23T09:23:11.555Z,1704.00
2018-11-23T09:24:11.571Z,1704.00
2018-11-23T09:25:11.599Z,1712.00
2018-11-23T09:26:11.595Z,1716.00
2018-11-23T09:27:11.593Z,1732.00
2018-11-23T09:28:11.610Z,1740.00
2018-11-23T09:29:11.616Z,1748.00
2018-11-23T09:30:11.626Z,1760.00
2018-11-23T09:31:11.638Z,1776.00
2018-11-23T09:32:11.682Z,1788.00
2018-11-23T09:33:11.653Z,1808.00
2018-11-23T09:34:11.658Z,1832.00
2018-11-23T09:35:11.669Z,1848.00
2018-11-23T09:36:11.680Z,1856.00
2018-11-23T09:37:11.694Z,1876.00
2018-11-23T09:38:11.705Z,1888.00
2018-11-23T09:39:11.720Z,1908.00
2018-11-23T09:40:11.721Z,1920.00
2018-11-23T09:41:11.726Z,1936.00
2018-11-23T09:42:11.759Z,2136.00
2018-11-23T09:43:11.746Z,2780.00
2018-11-23T09:44:11.750Z,3148.00
2018-11-23T09:45:11.763Z,3152.00
2018-11-23T09:46:11.800Z,3136.00
2018-11-23T09:47:11.790Z,3140.00
2018-11-23T09:48:11.803Z,3128.00
2018-11-23T09:49:11.801Z,3120.00
2018-11-23T09:50:11.822Z,3132.00
2018-11-23T09:51:11.827Z,3132.00
2018-11-23T09:52:11.834Z,3128.00
2018-11-23T09:53:11.840Z,3136.00
2018-11-23T09:54:11.866Z,3124.00
2018-11-23T09:55:11.870Z,3116.00
2018-11-23T09:56:11.880Z,3128.00
2018-11-23T09:57:11.884Z,3120.00
2018-11-23T09:58:11.896Z,3128.00
2018-11-23T09:59:11.905Z,3136.00
2018-11-23T10:00:11.930Z,3124.00
2018-11-23T10:01:11.926Z,3120.00
2018-11-23T10:02:11.938Z,3136.00
2018-11-23T10:03:11.947Z,3136.00
2018-11-23T10:04:11.951Z,3136.00
2018-11-23T10:05:11.966Z,3152.00
2018-11-23T10:06:11.986Z,3156.00
2018-11-23T10:07:11.985Z,3156.00
2018-11-23T10:08:12.003Z,3168.00
2018-11-23T10:09:12.011Z,3184.00
2018-11-23T10:10:12.028Z,3200.00
2018-11-23T10:11:12.026Z,3304.00
2018-11-23T10:12:12.042Z,3440.00
2018-11-23T10:13:12.058Z,3656.00
2018-11-23T10:14:12.056Z,3836.00
2018-11-23T10:15:12.073Z,4244.00
2018-11-23T10:16:12.084Z,4612.00
2018-11-23T10:17:12.098Z,4636.00
2018-11-23T10:18:12.098Z,4900.00
2018-11-23T10:19:12.117Z,5392.00
2018-11-23T10:20:12.126Z,5932.00
2018-11-23T10:21:12.144Z,6168.00
2018-11-23T10:22:12.157Z,6220.00
2018-11-23T10:23:12.152Z,5596.00
2018-11-23T10:24:12.193Z,5000.00
2018-11-23T10:25:12.190Z,4352.00
2018-11-23T10:26:12.200Z,3928.00
2018-11-23T10:27:12.221Z,3936.00
2018-11-23T10:28:12.223Z,3980.00
2018-11-23T10:29:12.235Z,3828.00
2018-11-23T10:30:12.242Z,3352.00
2018-11-23T10:31:12.259Z,3192.00
2018-11-23T10:32:12.260Z,3156.00
2018-11-23T10:33:12.268Z,3144.00
2018-11-23T10:34:12.285Z,3128.00
2018-11-23T10:35:13.191Z,3136.00
2018-11-23T10:36:12.333Z,3136.00
2018-11-23T10:37:12.322Z,3164.00
2018-11-23T10:38:12.329Z,3180.00
2018-11-23T10:39:12.340Z,3208.00
2018-11-23T10:40:12.351Z,3036.00
2018-11-23T10:41:12.365Z,2856.00
2018-11-23T10:42:12.378Z,3088.00
2018-11-23T10:43:12.405Z,3136.00
2018-11-23T10:44:12.397Z,3316.00
2018-11-23T10:45:12.419Z,3184.00
2018-11-23T10:46:12.422Z,3368.00
2018-11-23T10:47:12.469Z,3548.00
2018-11-23T10:48:12.449Z,3736.00
2018-11-23T10:49:12.458Z,3864.00
2018-11-23T10:50:12.485Z,3916.00
2018-11-23T10:51:12.489Z,4040.00
2018-11-23T10:52:12.500Z,4324.00
2018-11-23T10:53:12.513Z,4616.00
2018-11-23T10:54:12.511Z,4944.00
2018-11-23T10:55:12.535Z,5084.00
2018-11-23T10:56:12.559Z,5184.00
2018-11-23T10:57:12.556Z,5304.00
2018-11-23T10:58:12.570Z,5336.00
2018-11-23T10:59:12.579Z,5332.00
2018-11-23T11:00:12.596Z,5224.00
2018-11-23T11:01:12.610Z,4952.00
2018-11-23T11:02:12.622Z,4712.00
2018-11-23T11:03:12.629Z,4472.00
2018-11-23T11:04:12.641Z,4156.00
2018-11-23T11:05:12.654Z,3904.00
2018-11-23T11:06:12.676Z,3648.00
2018-11-23T11:07:12.674Z,3408.00
2018-11-23T11:08:12.691Z,3196.00
2018-11-23T11:09:12.725Z,3052.00
2018-11-23T11:10:12.716Z,2960.00
2018-11-23T11:11:13.858Z,2924.00
2018-11-23T11:12:12.748Z,2896.00
2018-11-23T11:13:12.767Z,2892.00
2018-11-23T11:14:12.765Z,2880.00
2018-11-23T11:15:12.783Z,2868.00
2018-11-23T11:16:12.807Z,2860.00
2018-11-23T11:17:12.807Z,2876.00
2018-11-23T11:18:12.931Z,2876.00
2018-11-23T11:19:12.835Z,2848.00
2018-11-23T11:20:12.858Z,2856.00
2018-11-23T11:21:12.850Z,2856.00
2018-11-23T11:22:12.877Z,2848.00
2018-11-23T11:23:12.929Z,2856.00
2018-11-23T11:24:12.910Z,2844.00
2018-11-23T11:25:12.918Z,2856.00
2018-11-23T11:26:12.950Z,2864.00
2018-11-23T11:27:12.938Z,2840.00
2018-11-23T11:28:12.963Z,2836.00
2018-11-23T11:29:12.994Z,2824.00
2018-11-23T11:30:13.009Z,2820.00
2018-11-23T11:31:13.009Z,2840.00
2018-11-23T11:32:13.008Z,2828.00
2018-11-23T11:33:13.021Z,2840.00
2018-11-23T11:34:13.039Z,2828.00
2018-11-23T11:35:13.053Z,2848.00
2018-11-23T11:36:13.077Z,2896.00
2018-11-23T11:37:13.070Z,2904.00
2018-11-23T11:38:13.088Z,2904.00
2018-11-23T11:39:13.097Z,2896.00
2018-11-23T11:40:13.120Z,2932.00
2018-11-23T11:41:13.130Z,2940.00
2018-11-23T11:42:13.138Z,2928.00
2018-11-23T11:43:13.167Z,2920.00
2018-11-23T11:44:13.162Z,2924.00
2018-11-23T11:45:13.178Z,2924.00
2018-11-23T11:46:13.193Z,2924.00
2018-11-23T11:47:13.204Z,2928.00
2018-11-23T11:48:13.225Z,2924.00
2018-11-23T11:49:13.246Z,2936.00
2018-11-23T11:50:13.248Z,2928.00
2018-11-23T11:51:13.262Z,2928.00
2018-11-23T11:52:13.276Z,2924.00
2018-11-23T11:53:13.288Z,2924.00
2018-11-23T11:54:13.297Z,2924.00
2018-11-23T11:55:13.325Z,2928.00
2018-11-23T11:56:13.330Z,2916.00
2018-11-23T11:57:13.390Z,2924.00
2018-11-23T11:58:13.355Z,2948.00
2018-11-23T11:59:13.362Z,2932.00
2018-11-23T12:00:13.396Z,2916.00
2018-11-23T12:01:13.398Z,2912.00
2018-11-23T12:02:13.411Z,2928.00
2018-11-23T12:03:13.422Z,2932.00
2018-11-23T12:04:13.437Z,2940.00
2018-11-23T12:05:13.447Z,2936.00
2018-11-23T12:06:13.465Z,2948.00
2018-11-23T12:07:13.477Z,2928.00
2018-11-23T12:08:13.494Z,2964.00
2018-11-23T12:09:13.497Z,2912.00
2018-11-23T12:10:13.529Z,2896.00
2018-11-23T12:11:13.535Z,2888.00
2018-11-23T12:12:13.552Z,2876.00
2018-11-23T12:13:13.563Z,2864.00
2018-11-23T12:14:13.577Z,2856.00
2018-11-23T12:15:13.589Z,2860.00
2018-11-23T12:16:13.607Z,2860.00
2018-11-23T12:17:13.617Z,2864.00
2018-11-23T12:18:13.635Z,2880.00
2018-11-23T12:19:13.652Z,2852.00
2018-11-23T12:20:13.665Z,2852.00
2018-11-23T12:21:13.678Z,2836.00
2018-11-23T12:22:13.695Z,2828.00
2018-11-23T12:23:13.702Z,2820.00
2018-11-23T12:24:13.719Z,2820.00
2018-11-23T12:25:13.734Z,2800.00
2018-11-23T12:26:13.745Z,2792.00
2018-11-23T12:27:13.765Z,2776.00
2018-11-23T12:28:13.784Z,2760.00
2018-11-23T12:29:13.792Z,2676.00
2018-11-23T12:30:13.812Z,2624.00
2018-11-23T12:31:13.818Z,2588.00
2018-11-23T12:32:13.823Z,2536.00
2018-11-23T12:33:13.841Z,2472.00
2018-11-23T12:34:13.877Z,2408.00
2018-11-23T12:35:13.871Z,2324.00
2018-11-23T12:36:13.893Z,2272.00
2018-11-23T12:37:13.899Z,2224.00
2018-11-23T12:38:13.919Z,2212.00
2018-11-23T12:39:13.958Z,2228.00
2018-11-23T12:40:13.981Z,2248.00
2018-11-23T12:41:13.966Z,2276.00
2018-11-23T12:42:13.977Z,2312.00
2018-11-23T12:43:13.979Z,2352.00
2018-11-23T12:44:14.008Z,2368.00
2018-11-23T12:45:14.012Z,2316.00